Terminal Aerodrome Forecast
Issued by NWS Northern Indiana

Home | Current Version | Previous Version | Graphics & Text | Print | Product List | Glossary On
Versions: 1 2 3 4 5 6 7 8 9 10 11 12 13 14 15 16 17 18
000
FTUS43 KIWX 242327
TAFFWA
TAF
KFWA 242327Z 2500/2524 21010KT 4SM TSRA BKN025CB OVC100
     FM250015 21010KT P6SM BKN080
     FM250900 23004KT P6SM VCTS BKN200CB
     FM251600 22008KT P6SM VCTS BKN150CB
     FM251800 24011KT P6SM BKN090
     FM252200 27009KT P6SM BKN080=

USA.gov is the U.S. government's official web portal to all federal, state and local government web resources and services.